Cotton Valley, Louisiana
Current Conditions -  °F | °C
As of 2:16 PM on Sunday 23 Nov 2014 (Local Time) from KMNE Reporting Station
Clear Clear  
Wind Chill: 72°   Ceiling: Unl
Heat Index: 72°   Visibility: 10mi
Dew Point: 59°   Wind: 14mph
Humidity: 64%   Direction: 210°SSW
Pressure: 29.44"   Gusts: 18mph
Location:  32.82°N, 93.42°W
Report Text: KMNE 232016Z AUTO 21012G16KT 10SM CLR 22/15 A2944 RMK AO2
Loading
Personal Weather Stations






























Interactive Weather Map New forecast layout! Learn more

10-Day Weather Forecast

Advertisements
Track Severe Weather on mobile